sensor_id;sensor_type;location;lat;lon;timestamp;P1;durP1;ratioP1;P2;durP2;ratioP2
6015;SDS011;3036;49.960;8.454;2024-02-28T00:01:48;8.43;;;6.07;;
6015;SDS011;3036;49.960;8.454;2024-02-28T00:04:16;11.33;;;6.60;;
6015;SDS011;3036;49.960;8.454;2024-02-28T00:06:43;9.23;;;6.40;;
6015;SDS011;3036;49.960;8.454;2024-02-28T00:09:12;9.90;;;6.43;;
6015;SDS011;3036;49.960;8.454;2024-02-28T00:11:41;8.40;;;5.87;;
6015;SDS011;3036;49.960;8.454;2024-02-28T00:14:09;10.03;;;5.97;;
6015;SDS011;3036;49.960;8.454;2024-02-28T00:16:36;8.57;;;6.33;;
6015;SDS011;3036;49.960;8.454;2024-02-28T00:19:03;8.10;;;6.03;;
6015;SDS011;3036;49.960;8.454;2024-02-28T00:21:31;10.60;;;6.13;;
6015;SDS011;3036;49.960;8.454;2024-02-28T00:23:57;9.33;;;6.43;;
6015;SDS011;3036;49.960;8.454;2024-02-28T00:26:26;11.43;;;6.30;;
6015;SDS011;3036;49.960;8.454;2024-02-28T00:28:53;9.77;;;6.03;;
6015;SDS011;3036;49.960;8.454;2024-02-28T00:31:20;10.07;;;6.90;;
6015;SDS011;3036;49.960;8.454;2024-02-28T00:33:47;8.30;;;6.43;;
6015;SDS011;3036;49.960;8.454;2024-02-28T00:36:14;9.33;;;6.13;;
6015;SDS011;3036;49.960;8.454;2024-02-28T00:38:41;9.33;;;6.50;;
6015;SDS011;3036;49.960;8.454;2024-02-28T00:41:08;9.30;;;7.00;;
6015;SDS011;3036;49.960;8.454;2024-02-28T00:43:37;9.97;;;6.47;;
6015;SDS011;3036;49.960;8.454;2024-02-28T00:46:04;9.03;;;5.83;;
6015;SDS011;3036;49.960;8.454;2024-02-28T00:48:36;9.33;;;6.73;;
6015;SDS011;3036;49.960;8.454;2024-02-28T00:51:03;10.17;;;6.20;;
6015;SDS011;3036;49.960;8.454;2024-02-28T00:53:30;10.67;;;6.87;;
6015;SDS011;3036;49.960;8.454;2024-02-28T00:55:57;7.80;;;6.33;;
6015;SDS011;3036;49.960;8.454;2024-02-28T00:58:27;8.73;;;6.00;;
6015;SDS011;3036;49.960;8.454;2024-02-28T01:00:58;11.47;;;6.67;;
6015;SDS011;3036;49.960;8.454;2024-02-28T01:03:25;9.30;;;6.73;;
6015;SDS011;3036;49.960;8.454;2024-02-28T01:05:52;7.77;;;6.03;;
6015;SDS011;3036;49.960;8.454;2024-02-28T01:08:19;12.20;;;6.53;;
6015;SDS011;3036;49.960;8.454;2024-02-28T01:10:47;10.00;;;6.00;;
6015;SDS011;3036;49.960;8.454;2024-02-28T01:13:14;14.20;;;7.43;;
6015;SDS011;3036;49.960;8.454;2024-02-28T01:15:41;11.87;;;6.63;;
6015;SDS011;3036;49.960;8.454;2024-02-28T01:18:09;8.50;;;6.53;;
6015;SDS011;3036;49.960;8.454;2024-02-28T01:20:36;11.90;;;7.43;;
6015;SDS011;3036;49.960;8.454;2024-02-28T01:23:04;10.63;;;6.90;;
6015;SDS011;3036;49.960;8.454;2024-02-28T01:25:31;11.77;;;6.43;;
6015;SDS011;3036;49.960;8.454;2024-02-28T01:27:58;12.03;;;6.90;;
6015;SDS011;3036;49.960;8.454;2024-02-28T01:30:25;13.97;;;7.50;;
6015;SDS011;3036;49.960;8.454;2024-02-28T01:32:54;12.90;;;6.93;;
6015;SDS011;3036;49.960;8.454;2024-02-28T01:35:22;12.17;;;7.30;;
6015;SDS011;3036;49.960;8.454;2024-02-28T01:37:49;11.57;;;6.73;;
6015;SDS011;3036;49.960;8.454;2024-02-28T01:40:16;10.77;;;7.00;;
6015;SDS011;3036;49.960;8.454;2024-02-28T01:42:43;11.70;;;6.93;;
6015;SDS011;3036;49.960;8.454;2024-02-28T01:45:13;11.20;;;7.27;;
6015;SDS011;3036;49.960;8.454;2024-02-28T01:47:40;13.47;;;6.80;;
6015;SDS011;3036;49.960;8.454;2024-02-28T01:50:07;10.53;;;6.77;;
6015;SDS011;3036;49.960;8.454;2024-02-28T01:52:36;9.13;;;7.27;;
6015;SDS011;3036;49.960;8.454;2024-02-28T01:55:04;10.97;;;7.10;;
6015;SDS011;3036;49.960;8.454;2024-02-28T01:57:32;10.97;;;7.23;;
6015;SDS011;3036;49.960;8.454;2024-02-28T02:00:00;8.87;;;6.57;;
6015;SDS011;3036;49.960;8.454;2024-02-28T02:02:27;10.23;;;6.43;;
6015;SDS011;3036;49.960;8.454;2024-02-28T02:04:54;9.17;;;6.20;;
6015;SDS011;3036;49.960;8.454;2024-02-28T02:07:23;10.20;;;6.43;;
6015;SDS011;3036;49.960;8.454;2024-02-28T02:09:52;9.90;;;6.43;;
6015;SDS011;3036;49.960;8.454;2024-02-28T02:12:19;10.97;;;6.30;;
6015;SDS011;3036;49.960;8.454;2024-02-28T02:14:47;9.17;;;6.13;;
6015;SDS011;3036;49.960;8.454;2024-02-28T02:17:14;11.10;;;6.23;;
6015;SDS011;3036;49.960;8.454;2024-02-28T02:19:41;11.23;;;6.33;;
6015;SDS011;3036;49.960;8.454;2024-02-28T02:22:08;11.80;;;6.40;;
6015;SDS011;3036;49.960;8.454;2024-02-28T02:24:37;9.67;;;6.23;;
6015;SDS011;3036;49.960;8.454;2024-02-28T02:27:04;10.93;;;6.37;;
6015;SDS011;3036;49.960;8.454;2024-02-28T02:29:31;10.77;;;6.80;;
6015;SDS011;3036;49.960;8.454;2024-02-28T02:31:58;12.13;;;6.27;;
6015;SDS011;3036;49.960;8.454;2024-02-28T02:34:25;8.73;;;5.87;;
6015;SDS011;3036;49.960;8.454;2024-02-28T02:36:52;9.47;;;6.17;;
6015;SDS011;3036;49.960;8.454;2024-02-28T02:39:19;10.40;;;6.47;;
6015;SDS011;3036;49.960;8.454;2024-02-28T02:41:48;11.20;;;6.50;;
6015;SDS011;3036;49.960;8.454;2024-02-28T02:44:15;11.57;;;6.40;;
6015;SDS011;3036;49.960;8.454;2024-02-28T02:46:42;10.73;;;6.20;;
6015;SDS011;3036;49.960;8.454;2024-02-28T02:49:09;9.53;;;6.47;;
6015;SDS011;3036;49.960;8.454;2024-02-28T02:51:36;9.70;;;6.53;;
6015;SDS011;3036;49.960;8.454;2024-02-28T02:54:03;10.90;;;6.73;;
6015;SDS011;3036;49.960;8.454;2024-02-28T02:56:30;10.53;;;6.60;;
6015;SDS011;3036;49.960;8.454;2024-02-28T02:58:59;10.50;;;6.10;;
6015;SDS011;3036;49.960;8.454;2024-02-28T03:01:26;10.30;;;6.17;;
6015;SDS011;3036;49.960;8.454;2024-02-28T03:03:53;8.43;;;5.67;;
6015;SDS011;3036;49.960;8.454;2024-02-28T03:06:20;11.83;;;6.30;;
6015;SDS011;3036;49.960;8.454;2024-02-28T03:08:49;8.40;;;6.67;;
6015;SDS011;3036;49.960;8.454;2024-02-28T03:11:16;11.23;;;6.70;;
6015;SDS011;3036;49.960;8.454;2024-02-28T03:13:43;11.50;;;7.00;;
6015;SDS011;3036;49.960;8.454;2024-02-28T03:16:11;17.63;;;7.13;;
6015;SDS011;3036;49.960;8.454;2024-02-28T03:18:38;10.53;;;6.87;;
6015;SDS011;3036;49.960;8.454;2024-02-28T03:21:06;10.40;;;6.67;;
6015;SDS011;3036;49.960;8.454;2024-02-28T03:23:33;11.60;;;6.10;;
6015;SDS011;3036;49.960;8.454;2024-02-28T03:26:01;10.63;;;6.67;;
6015;SDS011;3036;49.960;8.454;2024-02-28T03:28:28;13.23;;;7.03;;
6015;SDS011;3036;49.960;8.454;2024-02-28T03:30:55;11.87;;;6.37;;
6015;SDS011;3036;49.960;8.454;2024-02-28T03:33:23;9.60;;;6.00;;
6015;SDS011;3036;49.960;8.454;2024-02-28T03:35:51;8.80;;;6.07;;
6015;SDS011;3036;49.960;8.454;2024-02-28T03:38:18;12.27;;;6.07;;
6015;SDS011;3036;49.960;8.454;2024-02-28T03:40:45;12.17;;;6.67;;
6015;SDS011;3036;49.960;8.454;2024-02-28T03:43:12;9.23;;;5.67;;
6015;SDS011;3036;49.960;8.454;2024-02-28T03:45:39;8.83;;;6.20;;
6015;SDS011;3036;49.960;8.454;2024-02-28T03:48:06;10.23;;;6.43;;
6015;SDS011;3036;49.960;8.454;2024-02-28T03:50:35;8.93;;;6.07;;
6015;SDS011;3036;49.960;8.454;2024-02-28T03:53:02;11.63;;;6.60;;
6015;SDS011;3036;49.960;8.454;2024-02-28T03:55:29;13.60;;;7.07;;
6015;SDS011;3036;49.960;8.454;2024-02-28T03:57:56;10.53;;;6.20;;
6015;SDS011;3036;49.960;8.454;2024-02-28T04:00:23;12.20;;;7.10;;
6015;SDS011;3036;49.960;8.454;2024-02-28T04:02:51;11.60;;;6.80;;
6015;SDS011;3036;49.960;8.454;2024-02-28T04:05:18;11.67;;;6.77;;
6015;SDS011;3036;49.960;8.454;2024-02-28T04:07:46;12.67;;;7.73;;
6015;SDS011;3036;49.960;8.454;2024-02-28T04:10:13;10.97;;;5.90;;
6015;SDS011;3036;49.960;8.454;2024-02-28T04:12:42;11.33;;;6.40;;
6015;SDS011;3036;49.960;8.454;2024-02-28T04:15:10;12.93;;;6.63;;
6015;SDS011;3036;49.960;8.454;2024-02-28T04:17:37;10.33;;;6.10;;
6015;SDS011;3036;49.960;8.454;2024-02-28T04:20:07;13.07;;;7.50;;
6015;SDS011;3036;49.960;8.454;2024-02-28T04:22:34;11.13;;;6.50;;
6015;SDS011;3036;49.960;8.454;2024-02-28T04:25:03;11.33;;;6.83;;
6015;SDS011;3036;49.960;8.454;2024-02-28T04:27:30;10.03;;;6.60;;
6015;SDS011;3036;49.960;8.454;2024-02-28T04:29:57;10.80;;;6.57;;
6015;SDS011;3036;49.960;8.454;2024-02-28T04:32:24;11.40;;;6.93;;
6015;SDS011;3036;49.960;8.454;2024-02-28T04:34:51;10.27;;;6.83;;
6015;SDS011;3036;49.960;8.454;2024-02-28T04:37:18;10.93;;;6.83;;
6015;SDS011;3036;49.960;8.454;2024-02-28T04:39:45;13.27;;;7.80;;
6015;SDS011;3036;49.960;8.454;2024-02-28T04:42:15;11.67;;;7.27;;
6015;SDS011;3036;49.960;8.454;2024-02-28T04:44:42;14.00;;;7.67;;
6015;SDS011;3036;49.960;8.454;2024-02-28T04:47:09;12.90;;;7.93;;
6015;SDS011;3036;49.960;8.454;2024-02-28T04:49:36;15.90;;;7.97;;
6015;SDS011;3036;49.960;8.454;2024-02-28T04:52:04;17.97;;;7.83;;
6015;SDS011;3036;49.960;8.454;2024-02-28T04:54:31;13.23;;;8.03;;
6015;SDS011;3036;49.960;8.454;2024-02-28T04:56:58;16.23;;;8.43;;
6015;SDS011;3036;49.960;8.454;2024-02-28T04:59:27;16.40;;;8.30;;
6015;SDS011;3036;49.960;8.454;2024-02-28T05:01:54;14.10;;;8.50;;
6015;SDS011;3036;49.960;8.454;2024-02-28T05:04:21;16.43;;;8.97;;
6015;SDS011;3036;49.960;8.454;2024-02-28T05:06:48;19.20;;;10.03;;
6015;SDS011;3036;49.960;8.454;2024-02-28T05:09:15;19.13;;;9.97;;
6015;SDS011;3036;49.960;8.454;2024-02-28T05:11:43;17.20;;;9.00;;
6015;SDS011;3036;49.960;8.454;2024-02-28T05:14:10;14.13;;;8.50;;
6015;SDS011;3036;49.960;8.454;2024-02-28T05:16:39;20.27;;;9.43;;
6015;SDS011;3036;49.960;8.454;2024-02-28T05:19:06;17.00;;;9.17;;
6015;SDS011;3036;49.960;8.454;2024-02-28T05:21:39;21.77;;;9.57;;
6015;SDS011;3036;49.960;8.454;2024-02-28T05:24:06;16.57;;;8.60;;
6015;SDS011;3036;49.960;8.454;2024-02-28T05:26:34;16.57;;;8.20;;
6015;SDS011;3036;49.960;8.454;2024-02-28T05:29:01;20.93;;;8.40;;
6015;SDS011;3036;49.960;8.454;2024-02-28T05:31:29;15.17;;;7.50;;
6015;SDS011;3036;49.960;8.454;2024-02-28T05:33:58;15.67;;;7.93;;
6015;SDS011;3036;49.960;8.454;2024-02-28T05:36:26;16.53;;;8.40;;
6015;SDS011;3036;49.960;8.454;2024-02-28T05:38:53;15.40;;;8.13;;
6015;SDS011;3036;49.960;8.454;2024-02-28T05:41:20;14.60;;;7.87;;
6015;SDS011;3036;49.960;8.454;2024-02-28T05:43:48;15.30;;;8.33;;
6015;SDS011;3036;49.960;8.454;2024-02-28T05:46:15;16.83;;;8.47;;
6015;SDS011;3036;49.960;8.454;2024-02-28T05:48:42;14.37;;;7.77;;
6015;SDS011;3036;49.960;8.454;2024-02-28T05:51:11;19.33;;;8.33;;
6015;SDS011;3036;49.960;8.454;2024-02-28T05:53:38;15.27;;;8.17;;
6015;SDS011;3036;49.960;8.454;2024-02-28T05:56:05;15.43;;;8.60;;
6015;SDS011;3036;49.960;8.454;2024-02-28T05:58:38;18.73;;;8.83;;
6015;SDS011;3036;49.960;8.454;2024-02-28T06:01:05;16.30;;;8.30;;
6015;SDS011;3036;49.960;8.454;2024-02-28T06:03:33;23.00;;;10.20;;
6015;SDS011;3036;49.960;8.454;2024-02-28T06:06:00;16.40;;;8.37;;
6015;SDS011;3036;49.960;8.454;2024-02-28T06:08:31;19.40;;;8.67;;
6015;SDS011;3036;49.960;8.454;2024-02-28T06:10:58;16.20;;;8.27;;
6015;SDS011;3036;49.960;8.454;2024-02-28T06:13:25;13.50;;;7.73;;
6015;SDS011;3036;49.960;8.454;2024-02-28T06:15:52;14.80;;;7.83;;
6015;SDS011;3036;49.960;8.454;2024-02-28T06:18:19;13.10;;;7.87;;
6015;SDS011;3036;49.960;8.454;2024-02-28T06:20:47;18.63;;;8.07;;
6015;SDS011;3036;49.960;8.454;2024-02-28T06:23:15;15.37;;;8.00;;
6015;SDS011;3036;49.960;8.454;2024-02-28T06:25:43;13.13;;;8.20;;
6015;SDS011;3036;49.960;8.454;2024-02-28T06:28:10;14.90;;;7.63;;
6015;SDS011;3036;49.960;8.454;2024-02-28T06:30:37;16.93;;;8.77;;
6015;SDS011;3036;49.960;8.454;2024-02-28T06:33:05;16.20;;;8.80;;
6015;SDS011;3036;49.960;8.454;2024-02-28T06:35:33;13.20;;;8.03;;
6015;SDS011;3036;49.960;8.454;2024-02-28T06:38:01;13.63;;;8.47;;
6015;SDS011;3036;49.960;8.454;2024-02-28T06:40:28;16.40;;;7.93;;
6015;SDS011;3036;49.960;8.454;2024-02-28T06:42:56;16.10;;;8.17;;
6015;SDS011;3036;49.960;8.454;2024-02-28T06:45:23;15.80;;;8.23;;
6015;SDS011;3036;49.960;8.454;2024-02-28T06:47:51;17.33;;;8.47;;
6015;SDS011;3036;49.960;8.454;2024-02-28T06:50:18;15.67;;;9.07;;
6015;SDS011;3036;49.960;8.454;2024-02-28T06:52:45;15.27;;;8.43;;
6015;SDS011;3036;49.960;8.454;2024-02-28T06:55:12;16.13;;;8.70;;
6015;SDS011;3036;49.960;8.454;2024-02-28T06:57:40;16.87;;;8.37;;
6015;SDS011;3036;49.960;8.454;2024-02-28T07:00:09;19.80;;;8.90;;
6015;SDS011;3036;49.960;8.454;2024-02-28T07:02:37;16.07;;;8.10;;
6015;SDS011;3036;49.960;8.454;2024-02-28T07:05:04;11.37;;;7.30;;
6015;SDS011;3036;49.960;8.454;2024-02-28T07:07:31;14.07;;;7.83;;
6015;SDS011;3036;49.960;8.454;2024-02-28T07:09:59;15.30;;;7.77;;
6015;SDS011;3036;49.960;8.454;2024-02-28T07:12:26;14.23;;;8.30;;
6015;SDS011;3036;49.960;8.454;2024-02-28T07:14:53;17.27;;;8.37;;
6015;SDS011;3036;49.960;8.454;2024-02-28T07:17:22;15.37;;;8.77;;
6015;SDS011;3036;49.960;8.454;2024-02-28T07:19:49;15.47;;;8.30;;
6015;SDS011;3036;49.960;8.454;2024-02-28T07:22:16;16.60;;;9.13;;
6015;SDS011;3036;49.960;8.454;2024-02-28T07:24:43;16.67;;;8.60;;
6015;SDS011;3036;49.960;8.454;2024-02-28T07:27:10;16.43;;;9.97;;
6015;SDS011;3036;49.960;8.454;2024-02-28T07:29:38;19.13;;;9.63;;
6015;SDS011;3036;49.960;8.454;2024-02-28T07:32:05;19.00;;;9.53;;
6015;SDS011;3036;49.960;8.454;2024-02-28T07:34:33;20.23;;;9.73;;
6015;SDS011;3036;49.960;8.454;2024-02-28T07:37:00;17.60;;;9.33;;
6015;SDS011;3036;49.960;8.454;2024-02-28T07:39:27;20.17;;;10.03;;
6015;SDS011;3036;49.960;8.454;2024-02-28T07:41:54;19.30;;;10.43;;
6015;SDS011;3036;49.960;8.454;2024-02-28T07:44:21;21.63;;;10.80;;
6015;SDS011;3036;49.960;8.454;2024-02-28T07:46:48;22.23;;;11.47;;
6015;SDS011;3036;49.960;8.454;2024-02-28T07:49:16;17.97;;;9.93;;
6015;SDS011;3036;49.960;8.454;2024-02-28T07:51:44;22.50;;;10.90;;
6015;SDS011;3036;49.960;8.454;2024-02-28T07:54:11;21.90;;;10.97;;
6015;SDS011;3036;49.960;8.454;2024-02-28T07:56:38;21.23;;;10.57;;
6015;SDS011;3036;49.960;8.454;2024-02-28T07:59:05;23.10;;;11.23;;
6015;SDS011;3036;49.960;8.454;2024-02-28T08:01:33;18.47;;;10.37;;
6015;SDS011;3036;49.960;8.454;2024-02-28T08:04:00;21.70;;;11.00;;
6015;SDS011;3036;49.960;8.454;2024-02-28T08:06:27;22.03;;;10.97;;
6015;SDS011;3036;49.960;8.454;2024-02-28T08:08:55;18.33;;;10.33;;
6015;SDS011;3036;49.960;8.454;2024-02-28T08:11:22;22.13;;;10.07;;
6015;SDS011;3036;49.960;8.454;2024-02-28T08:13:50;22.77;;;10.87;;
6015;SDS011;3036;49.960;8.454;2024-02-28T08:16:17;21.93;;;10.40;;
6015;SDS011;3036;49.960;8.454;2024-02-28T08:18:44;22.93;;;10.63;;
6015;SDS011;3036;49.960;8.454;2024-02-28T08:21:11;26.13;;;10.80;;
6015;SDS011;3036;49.960;8.454;2024-02-28T08:23:41;23.30;;;11.13;;
6015;SDS011;3036;49.960;8.454;2024-02-28T08:26:09;21.87;;;10.53;;
6015;SDS011;3036;49.960;8.454;2024-02-28T08:28:37;31.63;;;11.10;;
6015;SDS011;3036;49.960;8.454;2024-02-28T08:31:04;24.47;;;11.17;;
6015;SDS011;3036;49.960;8.454;2024-02-28T08:33:31;23.77;;;10.93;;
6015;SDS011;3036;49.960;8.454;2024-02-28T08:35:58;23.47;;;10.83;;
6015;SDS011;3036;49.960;8.454;2024-02-28T08:38:25;24.23;;;10.50;;
6015;SDS011;3036;49.960;8.454;2024-02-28T08:40:52;21.23;;;10.17;;
6015;SDS011;3036;49.960;8.454;2024-02-28T08:43:21;26.47;;;12.10;;
6015;SDS011;3036;49.960;8.454;2024-02-28T08:45:48;19.03;;;9.43;;
6015;SDS011;3036;49.960;8.454;2024-02-28T08:48:16;26.83;;;12.53;;
6015;SDS011;3036;49.960;8.454;2024-02-28T08:50:43;21.80;;;10.73;;
6015;SDS011;3036;49.960;8.454;2024-02-28T08:53:10;31.77;;;12.00;;
6015;SDS011;3036;49.960;8.454;2024-02-28T08:55:37;20.47;;;11.50;;
6015;SDS011;3036;49.960;8.454;2024-02-28T08:58:04;19.67;;;11.03;;
6015;SDS011;3036;49.960;8.454;2024-02-28T09:00:33;22.30;;;11.57;;
6015;SDS011;3036;49.960;8.454;2024-02-28T09:03:00;23.20;;;11.47;;
6015;SDS011;3036;49.960;8.454;2024-02-28T09:05:29;20.53;;;10.43;;
6015;SDS011;3036;49.960;8.454;2024-02-28T09:07:56;17.43;;;8.00;;
6015;SDS011;3036;49.960;8.454;2024-02-28T09:10:23;21.40;;;11.40;;
6015;SDS011;3036;49.960;8.454;2024-02-28T09:12:50;17.63;;;10.03;;
6015;SDS011;3036;49.960;8.454;2024-02-28T09:15:17;21.80;;;11.53;;
6015;SDS011;3036;49.960;8.454;2024-02-28T09:17:46;19.63;;;9.77;;
6015;SDS011;3036;49.960;8.454;2024-02-28T09:20:13;19.80;;;10.13;;
6015;SDS011;3036;49.960;8.454;2024-02-28T09:22:40;19.63;;;11.53;;
6015;SDS011;3036;49.960;8.454;2024-02-28T09:25:07;22.17;;;11.97;;
6015;SDS011;3036;49.960;8.454;2024-02-28T09:27:35;23.77;;;11.93;;
6015;SDS011;3036;49.960;8.454;2024-02-28T09:30:02;22.60;;;12.20;;
6015;SDS011;3036;49.960;8.454;2024-02-28T09:32:29;22.47;;;11.67;;
6015;SDS011;3036;49.960;8.454;2024-02-28T09:34:57;25.93;;;11.77;;
6015;SDS011;3036;49.960;8.454;2024-02-28T09:37:24;17.67;;;8.63;;
6015;SDS011;3036;49.960;8.454;2024-02-28T09:39:51;22.20;;;11.13;;
6015;SDS011;3036;49.960;8.454;2024-02-28T09:42:18;20.87;;;11.90;;
6015;SDS011;3036;49.960;8.454;2024-02-28T09:44:45;22.47;;;11.87;;
6015;SDS011;3036;49.960;8.454;2024-02-28T09:47:13;20.93;;;11.63;;
6015;SDS011;3036;49.960;8.454;2024-02-28T09:49:40;17.80;;;9.90;;
6015;SDS011;3036;49.960;8.454;2024-02-28T09:52:09;19.00;;;10.70;;
6015;SDS011;3036;49.960;8.454;2024-02-28T09:54:36;20.10;;;11.80;;
6015;SDS011;3036;49.960;8.454;2024-02-28T09:57:04;22.13;;;11.13;;
6015;SDS011;3036;49.960;8.454;2024-02-28T09:59:31;19.80;;;11.57;;
6015;SDS011;3036;49.960;8.454;2024-02-28T10:01:59;21.20;;;10.10;;
6015;SDS011;3036;49.960;8.454;2024-02-28T10:04:27;20.47;;;10.60;;
6015;SDS011;3036;49.960;8.454;2024-02-28T10:06:54;21.63;;;11.27;;
6015;SDS011;3036;49.960;8.454;2024-02-28T10:09:22;22.23;;;12.23;;
6015;SDS011;3036;49.960;8.454;2024-02-28T10:11:49;20.97;;;12.10;;
6015;SDS011;3036;49.960;8.454;2024-02-28T10:14:17;20.10;;;11.73;;
6015;SDS011;3036;49.960;8.454;2024-02-28T10:16:44;18.93;;;10.90;;
6015;SDS011;3036;49.960;8.454;2024-02-28T10:19:12;16.87;;;10.43;;
6015;SDS011;3036;49.960;8.454;2024-02-28T10:21:39;19.40;;;11.00;;
6015;SDS011;3036;49.960;8.454;2024-02-28T10:24:06;20.63;;;10.97;;
6015;SDS011;3036;49.960;8.454;2024-02-28T10:26:42;19.30;;;10.87;;
6015;SDS011;3036;49.960;8.454;2024-02-28T10:29:09;19.70;;;11.43;;
6015;SDS011;3036;49.960;8.454;2024-02-28T10:31:37;17.93;;;10.67;;
6015;SDS011;3036;49.960;8.454;2024-02-28T10:34:04;19.80;;;10.67;;
6015;SDS011;3036;49.960;8.454;2024-02-28T10:36:31;18.97;;;11.67;;
6015;SDS011;3036;49.960;8.454;2024-02-28T10:38:59;19.47;;;11.33;;
6015;SDS011;3036;49.960;8.454;2024-02-28T10:41:26;19.90;;;11.37;;
6015;SDS011;3036;49.960;8.454;2024-02-28T10:43:56;19.17;;;11.47;;
6015;SDS011;3036;49.960;8.454;2024-02-28T10:46:23;20.50;;;11.53;;
6015;SDS011;3036;49.960;8.454;2024-02-28T10:48:50;18.43;;;11.00;;
6015;SDS011;3036;49.960;8.454;2024-02-28T10:51:20;20.20;;;11.60;;
6015;SDS011;3036;49.960;8.454;2024-02-28T10:53:50;19.80;;;10.50;;
6015;SDS011;3036;49.960;8.454;2024-02-28T10:56:21;18.50;;;10.60;;
6015;SDS011;3036;49.960;8.454;2024-02-28T10:58:51;18.00;;;10.70;;
6015;SDS011;3036;49.960;8.454;2024-02-28T11:01:19;18.03;;;11.07;;
6015;SDS011;3036;49.960;8.454;2024-02-28T11:03:47;16.27;;;10.40;;
6015;SDS011;3036;49.960;8.454;2024-02-28T11:06:18;19.43;;;11.23;;
6015;SDS011;3036;49.960;8.454;2024-02-28T11:08:46;21.67;;;12.00;;
6015;SDS011;3036;49.960;8.454;2024-02-28T11:11:14;19.03;;;11.20;;
6015;SDS011;3036;49.960;8.454;2024-02-28T11:13:50;18.30;;;10.37;;
6015;SDS011;3036;49.960;8.454;2024-02-28T11:16:18;17.03;;;10.37;;
6015;SDS011;3036;49.960;8.454;2024-02-28T11:18:54;19.10;;;10.80;;
6015;SDS011;3036;49.960;8.454;2024-02-28T11:21:22;17.33;;;10.80;;
6015;SDS011;3036;49.960;8.454;2024-02-28T11:23:50;17.17;;;10.27;;
6015;SDS011;3036;49.960;8.454;2024-02-28T11:26:18;16.23;;;9.80;;
6015;SDS011;3036;49.960;8.454;2024-02-28T11:28:46;16.57;;;9.93;;
6015;SDS011;3036;49.960;8.454;2024-02-28T11:31:14;15.30;;;9.63;;
6015;SDS011;3036;49.960;8.454;2024-02-28T11:33:41;17.63;;;10.63;;
6015;SDS011;3036;49.960;8.454;2024-02-28T11:36:09;17.43;;;10.40;;
6015;SDS011;3036;49.960;8.454;2024-02-28T11:38:38;16.37;;;10.07;;
6015;SDS011;3036;49.960;8.454;2024-02-28T11:41:05;20.23;;;10.63;;
6015;SDS011;3036;49.960;8.454;2024-02-28T11:43:33;19.77;;;11.73;;
6015;SDS011;3036;49.960;8.454;2024-02-28T11:46:00;21.53;;;11.90;;
6015;SDS011;3036;49.960;8.454;2024-02-28T11:48:29;18.90;;;11.83;;
6015;SDS011;3036;49.960;8.454;2024-02-28T11:50:57;14.37;;;9.33;;
6015;SDS011;3036;49.960;8.454;2024-02-28T11:53:26;16.63;;;9.93;;
6015;SDS011;3036;49.960;8.454;2024-02-28T11:55:53;15.03;;;10.03;;
6015;SDS011;3036;49.960;8.454;2024-02-28T11:58:21;14.30;;;9.93;;
6015;SDS011;3036;49.960;8.454;2024-02-28T12:00:48;18.10;;;11.13;;
6015;SDS011;3036;49.960;8.454;2024-02-28T12:03:19;15.83;;;10.80;;
6015;SDS011;3036;49.960;8.454;2024-02-28T12:05:47;18.33;;;11.10;;
6015;SDS011;3036;49.960;8.454;2024-02-28T12:08:14;18.40;;;10.40;;
6015;SDS011;3036;49.960;8.454;2024-02-28T12:10:42;18.92;;;11.07;;
6015;SDS011;3036;49.960;8.454;2024-02-28T12:13:09;19.80;;;11.98;;
6015;SDS011;3036;49.960;8.454;2024-02-28T12:15:38;21.35;;;10.55;;
6015;SDS011;3036;49.960;8.454;2024-02-28T12:18:07;20.67;;;13.65;;
6015;SDS011;3036;49.960;8.454;2024-02-28T12:20:35;18.45;;;11.98;;
6015;SDS011;3036;49.960;8.454;2024-02-28T12:23:03;15.77;;;10.50;;
6015;SDS011;3036;49.960;8.454;2024-02-28T12:25:30;15.55;;;10.85;;
6015;SDS011;3036;49.960;8.454;2024-02-28T12:27:58;19.30;;;11.77;;
6015;SDS011;3036;49.960;8.454;2024-02-28T12:30:26;22.23;;;10.80;;
6015;SDS011;3036;49.960;8.454;2024-02-28T12:32:53;15.33;;;10.37;;
6015;SDS011;3036;49.960;8.454;2024-02-28T12:35:20;19.43;;;10.47;;
6015;SDS011;3036;49.960;8.454;2024-02-28T12:37:47;18.07;;;10.00;;
6015;SDS011;3036;49.960;8.454;2024-02-28T12:40:16;15.65;;;9.23;;
6015;SDS011;3036;49.960;8.454;2024-02-28T12:42:43;19.40;;;10.05;;
6015;SDS011;3036;49.960;8.454;2024-02-28T12:45:11;13.00;;;9.68;;
6015;SDS011;3036;49.960;8.454;2024-02-28T12:47:38;15.30;;;9.57;;
6015;SDS011;3036;49.960;8.454;2024-02-28T12:50:06;12.50;;;9.05;;
6015;SDS011;3036;49.960;8.454;2024-02-28T12:52:34;13.93;;;9.32;;
6015;SDS011;3036;49.960;8.454;2024-02-28T12:55:02;18.17;;;10.38;;
6015;SDS011;3036;49.960;8.454;2024-02-28T12:57:29;14.50;;;9.75;;
6015;SDS011;3036;49.960;8.454;2024-02-28T12:59:56;15.45;;;9.48;;
6015;SDS011;3036;49.960;8.454;2024-02-28T13:02:24;14.38;;;9.80;;
6015;SDS011;3036;49.960;8.454;2024-02-28T13:04:51;15.57;;;9.73;;
6015;SDS011;3036;49.960;8.454;2024-02-28T13:07:19;16.38;;;9.38;;
6015;SDS011;3036;49.960;8.454;2024-02-28T13:09:47;12.73;;;9.37;;
6015;SDS011;3036;49.960;8.454;2024-02-28T13:12:15;16.58;;;9.80;;
6015;SDS011;3036;49.960;8.454;2024-02-28T13:14:44;14.80;;;9.65;;
6015;SDS011;3036;49.960;8.454;2024-02-28T13:17:11;14.30;;;9.75;;
6015;SDS011;3036;49.960;8.454;2024-02-28T13:19:39;13.30;;;9.70;;
6015;SDS011;3036;49.960;8.454;2024-02-28T13:22:06;17.58;;;10.55;;
6015;SDS011;3036;49.960;8.454;2024-02-28T13:24:34;17.80;;;9.75;;
6015;SDS011;3036;49.960;8.454;2024-02-28T13:27:01;16.63;;;9.80;;
6015;SDS011;3036;49.960;8.454;2024-02-28T13:29:28;14.38;;;9.30;;
6015;SDS011;3036;49.960;8.454;2024-02-28T13:31:56;14.80;;;9.77;;
6015;SDS011;3036;49.960;8.454;2024-02-28T13:34:23;14.30;;;9.67;;
6015;SDS011;3036;49.960;8.454;2024-02-28T13:36:52;13.47;;;9.33;;
6015;SDS011;3036;49.960;8.454;2024-02-28T13:39:19;11.73;;;8.30;;
6015;SDS011;3036;49.960;8.454;2024-02-28T13:41:48;13.53;;;9.30;;
6015;SDS011;3036;49.960;8.454;2024-02-28T13:44:16;14.63;;;8.60;;
6015;SDS011;3036;49.960;8.454;2024-02-28T13:46:43;14.87;;;9.57;;
6015;SDS011;3036;49.960;8.454;2024-02-28T13:49:11;12.15;;;8.07;;
6015;SDS011;3036;49.960;8.454;2024-02-28T13:51:38;14.13;;;9.40;;
6015;SDS011;3036;49.960;8.454;2024-02-28T13:54:07;13.60;;;7.97;;
6015;SDS011;3036;49.960;8.454;2024-02-28T13:56:34;14.13;;;8.75;;
6015;SDS011;3036;49.960;8.454;2024-02-28T13:59:01;12.80;;;9.17;;
6015;SDS011;3036;49.960;8.454;2024-02-28T14:01:28;12.15;;;8.38;;
6015;SDS011;3036;49.960;8.454;2024-02-28T14:03:55;12.50;;;8.40;;
6015;SDS011;3036;49.960;8.454;2024-02-28T14:06:22;12.48;;;8.35;;
6015;SDS011;3036;49.960;8.454;2024-02-28T14:08:49;10.95;;;7.97;;
6015;SDS011;3036;49.960;8.454;2024-02-28T14:11:19;11.48;;;8.13;;
6015;SDS011;3036;49.960;8.454;2024-02-28T14:13:46;12.50;;;8.45;;
6015;SDS011;3036;49.960;8.454;2024-02-28T14:16:13;11.52;;;8.48;;
6015;SDS011;3036;49.960;8.454;2024-02-28T14:18:40;12.23;;;7.43;;
6015;SDS011;3036;49.960;8.454;2024-02-28T14:21:07;9.67;;;7.17;;
6015;SDS011;3036;49.960;8.454;2024-02-28T14:23:34;11.97;;;8.07;;
6015;SDS011;3036;49.960;8.454;2024-02-28T14:26:01;11.73;;;8.18;;
6015;SDS011;3036;49.960;8.454;2024-02-28T14:28:30;11.95;;;8.23;;
6015;SDS011;3036;49.960;8.454;2024-02-28T14:30:57;12.10;;;7.57;;
6015;SDS011;3036;49.960;8.454;2024-02-28T14:33:24;11.35;;;7.75;;
6015;SDS011;3036;49.960;8.454;2024-02-28T14:35:51;12.77;;;7.97;;
6015;SDS011;3036;49.960;8.454;2024-02-28T14:38:18;11.07;;;7.93;;
6015;SDS011;3036;49.960;8.454;2024-02-28T14:40:45;9.23;;;6.87;;
6015;SDS011;3036;49.960;8.454;2024-02-28T14:43:12;10.60;;;7.63;;
6015;SDS011;3036;49.960;8.454;2024-02-28T14:45:41;11.73;;;7.17;;
6015;SDS011;3036;49.960;8.454;2024-02-28T14:48:08;11.53;;;7.17;;
6015;SDS011;3036;49.960;8.454;2024-02-28T14:50:35;9.63;;;7.23;;
6015;SDS011;3036;49.960;8.454;2024-02-28T14:53:02;9.80;;;6.87;;
6015;SDS011;3036;49.960;8.454;2024-02-28T14:55:29;9.23;;;6.60;;
6015;SDS011;3036;49.960;8.454;2024-02-28T14:57:56;9.33;;;6.70;;
6015;SDS011;3036;49.960;8.454;2024-02-28T15:00:25;8.83;;;5.87;;